TimeCDT,TemperatureF,Dew PointF,Humidity,Sea Level PressureIn,VisibilityMPH,Wind Direction,Wind SpeedMPH,Gust SpeedMPH,PrecipitationIn,Events,Conditions,WindDirDegrees,DateUTC
12:15 AM,63.9,57.0,78,30.01,10.0,Calm,Calm,-,N/A,,Clear,0,2013-07-04 05:15:00
12:35 AM,61.5,56.3,83,30.01,10.0,Calm,Calm,-,N/A,,Clear,0,2013-07-04 05:35:00
12:55 AM,62.4,56.7,81,30.01,10.0,Calm,Calm,-,N/A,,Clear,0,2013-07-04 05:55:00
1:15 AM,61.2,56.7,85,30.01,10.0,NE,3.5,-,N/A,,Clear,50,2013-07-04 06:15:00
1:35 AM,60.3,56.7,88,30.01,10.0,East,4.6,-,N/A,,Clear,80,2013-07-04 06:35:00
1:55 AM,61.0,56.8,86,30.00,10.0,ENE,3.5,-,N/A,,Clear,70,2013-07-04 06:55:00
2:15 AM,59.9,57.0,90,30.00,10.0,ENE,3.5,-,N/A,,Clear,70,2013-07-04 07:15:00
2:35 AM,61.2,56.8,86,30.00,10.0,SE,3.5,-,N/A,,Clear,130,2013-07-04 07:35:00
2:55 AM,62.4,56.3,80,29.99,10.0,SE,4.6,-,N/A,,Clear,140,2013-07-04 07:55:00
3:15 AM,62.6,55.9,79,29.99,10.0,Calm,Calm,-,N/A,,Clear,0,2013-07-04 08:15:00
3:35 AM,62.2,55.4,78,29.99,10.0,Calm,Calm,-,N/A,,Clear,0,2013-07-04 08:35:00
3:55 AM,62.2,55.4,78,29.99,10.0,SSE,5.8,-,N/A,,Clear,150,2013-07-04 08:55:00
4:15 AM,62.2,55.2,78,29.99,10.0,SSE,3.5,-,N/A,,Clear,160,2013-07-04 09:15:00
4:35 AM,61.7,55.0,79,29.99,10.0,SSE,3.5,-,N/A,,Clear,150,2013-07-04 09:35:00
4:55 AM,61.2,55.0,80,29.99,10.0,SSE,5.8,-,N/A,,Clear,150,2013-07-04 09:55:00
5:15 AM,61.7,54.7,78,30.00,10.0,SSE,4.6,-,N/A,,Clear,160,2013-07-04 10:15:00
5:35 AM,61.2,54.7,79,30.00,10.0,SSE,4.6,-,N/A,,Clear,160,2013-07-04 10:35:00
5:55 AM,60.8,54.9,81,30.00,10.0,SSE,5.8,-,N/A,,Clear,160,2013-07-04 10:55:00
6:15 AM,61.7,55.4,80,30.00,10.0,SSE,4.6,-,N/A,,Clear,160,2013-07-04 11:15:00
6:35 AM,63.0,56.1,78,30.00,10.0,South,4.6,-,N/A,,Scattered Clouds,170,2013-07-04 11:35:00
6:55 AM,64.6,57.2,77,30.00,10.0,SSE,5.8,-,N/A,,Mostly Cloudy,150,2013-07-04 11:55:00
7:15 AM,65.8,58.3,77,30.00,10.0,SSE,3.5,-,N/A,,Scattered Clouds,160,2013-07-04 12:15:00
7:35 AM,66.9,58.6,75,30.00,10.0,SSE,6.9,-,N/A,,Scattered Clouds,160,2013-07-04 12:35:00
7:55 AM,67.3,58.8,74,30.00,10.0,SSE,8.1,-,N/A,,Scattered Clouds,160,2013-07-04 12:55:00
8:15 AM,67.6,59.2,74,30.01,10.0,South,6.9,-,N/A,,Scattered Clouds,170,2013-07-04 13:15:00
8:35 AM,69.3,60.3,73,30.00,10.0,South,5.8,-,N/A,,Clear,170,2013-07-04 13:35:00
8:55 AM,70.5,60.1,69,30.00,10.0,SSE,6.9,-,N/A,,Clear,160,2013-07-04 13:55:00
9:15 AM,70.9,59.9,68,30.00,10.0,South,8.1,-,N/A,,Scattered Clouds,180,2013-07-04 14:15:00
9:35 AM,73.2,61.2,66,29.99,10.0,SSW,8.1,-,N/A,,Scattered Clouds,200,2013-07-04 14:35:00
9:55 AM,73.4,60.4,64,29.99,10.0,SSE,5.8,-,N/A,,Clear,160,2013-07-04 14:55:00
10:15 AM,74.3,61.7,65,29.98,10.0,SSE,8.1,-,N/A,,Clear,150,2013-07-04 15:15:00
10:35 AM,75.2,62.1,64,29.98,10.0,South,8.1,-,N/A,,Clear,170,2013-07-04 15:35:00
10:55 AM,75.6,61.9,62,29.99,10.0,South,8.1,-,N/A,,Clear,170,2013-07-04 15:55:00
11:15 AM,76.6,61.9,60,29.98,10.0,South,5.8,-,N/A,,Clear,180,2013-07-04 16:15:00
11:35 AM,77.5,62.4,59,29.98,10.0,SSE,10.4,-,N/A,,Scattered Clouds,150,2013-07-04 16:35:00
11:55 AM,79.2,63.7,59,29.98,10.0,South,10.4,-,N/A,,Scattered Clouds,170,2013-07-04 16:55:00
12:15 PM,79.5,61.9,55,29.97,10.0,South,6.9,-,N/A,,Clear,180,2013-07-04 17:15:00
12:35 PM,80.4,62.2,54,29.97,10.0,South,9.2,-,N/A,,Clear,190,2013-07-04 17:35:00
12:55 PM,80.8,63.3,55,29.97,10.0,SSE,9.2,-,N/A,,Clear,150,2013-07-04 17:55:00
1:15 PM,81.7,63.1,53,29.96,10.0,South,6.9,-,N/A,,Clear,180,2013-07-04 18:15:00
1:35 PM,82.6,62.1,50,29.96,10.0,South,9.2,-,N/A,,Clear,190,2013-07-04 18:35:00
1:55 PM,83.1,60.6,46,29.95,10.0,SSW,12.7,17.3,N/A,,Clear,210,2013-07-04 18:55:00
2:15 PM,83.7,60.3,45,29.95,10.0,South,15.0,20.7,N/A,,Clear,180,2013-07-04 19:15:00
2:35 PM,84.2,60.1,44,29.94,10.0,South,13.8,-,N/A,,Clear,180,2013-07-04 19:35:00
2:55 PM,84.2,59.9,44,29.94,10.0,South,12.7,-,N/A,,Clear,170,2013-07-04 19:55:00
3:15 PM,84.9,61.0,44,29.94,10.0,South,12.7,-,N/A,,Clear,190,2013-07-04 20:15:00
3:35 PM,85.1,57.7,39,29.94,10.0,South,11.5,20.7,N/A,,Clear,180,2013-07-04 20:35:00
3:55 PM,85.6,57.4,38,29.94,10.0,South,12.7,17.3,N/A,,Clear,180,2013-07-04 20:55:00
4:15 PM,85.6,55.6,36,29.94,10.0,South,15.0,18.4,N/A,,Clear,170,2013-07-04 21:15:00
4:35 PM,86.0,56.1,36,29.93,10.0,South,12.7,17.3,N/A,,Clear,190,2013-07-04 21:35:00
4:55 PM,85.8,57.4,38,29.93,10.0,South,11.5,-,N/A,,Clear,190,2013-07-04 21:55:00
5:15 PM,85.5,56.8,38,29.93,10.0,South,11.5,20.7,N/A,,Clear,180,2013-07-04 22:15:00
5:35 PM,85.1,57.2,39,29.92,10.0,South,10.4,-,N/A,,Clear,170,2013-07-04 22:35:00
5:55 PM,85.1,57.2,39,29.92,10.0,South,13.8,19.6,N/A,,Clear,170,2013-07-04 22:55:00
6:15 PM,84.4,56.3,38,29.91,10.0,South,15.0,19.6,N/A,,Clear,180,2013-07-04 23:15:00
6:35 PM,84.2,56.5,39,29.91,10.0,South,13.8,-,N/A,,Clear,170,2013-07-04 23:35:00
6:55 PM,83.5,55.9,39,29.91,10.0,South,11.5,-,N/A,,Clear,180,2013-07-04 23:55:00
7:15 PM,82.2,56.7,41,29.91,10.0,SSE,8.1,-,N/A,,Clear,160,2013-07-05 00:15:00
7:35 PM,80.4,59.7,49,29.91,10.0,SSE,8.1,-,N/A,,Clear,160,2013-07-05 00:35:00
7:55 PM,79.7,59.9,51,29.91,10.0,SSE,6.9,-,N/A,,Clear,150,2013-07-05 00:55:00
8:15 PM,79.0,58.8,50,29.91,10.0,SSE,8.1,-,N/A,,Clear,150,2013-07-05 01:15:00
8:35 PM,77.9,59.2,52,29.91,10.0,SSE,6.9,-,N/A,,Clear,150,2013-07-05 01:35:00
8:55 PM,76.3,59.4,56,29.91,10.0,SSE,9.2,-,N/A,,Clear,150,2013-07-05 01:55:00
9:15 PM,75.6,59.2,57,29.91,10.0,SSE,8.1,-,N/A,,Clear,150,2013-07-05 02:15:00
9:35 PM,75.2,59.0,57,29.91,10.0,SSE,8.1,-,N/A,,Clear,150,2013-07-05 02:35:00
9:55 PM,75.2,59.0,57,29.92,10.0,SSE,9.2,-,N/A,,Clear,150,2013-07-05 02:55:00
10:15 PM,74.3,59.0,59,29.92,10.0,SSE,8.1,-,N/A,,Clear,150,2013-07-05 03:15:00
10:35 PM,73.8,59.0,60,29.93,10.0,SSE,9.2,-,N/A,,Clear,150,2013-07-05 03:35:00
10:55 PM,72.9,59.4,62,29.93,10.0,SSE,10.4,-,N/A,,Clear,160,2013-07-05 03:55:00
11:15 PM,72.5,59.2,63,29.93,10.0,SSE,9.2,-,N/A,,Clear,150,2013-07-05 04:15:00
11:35 PM,72.0,59.4,64,29.93,10.0,SSE,9.2,-,N/A,,Clear,160,2013-07-05 04:35:00
11:55 PM,70.9,59.4,67,29.94,10.0,SSE,8.1,-,N/A,,Clear,160,2013-07-05 04:55:00